createdAt,value
2019-02-22T00:00:00.605Z,32.80
2019-02-22T00:01:00.830Z,33.20
2019-02-22T00:02:00.939Z,32.30
2019-02-22T00:03:01.276Z,32.90
2019-02-22T00:04:01.271Z,30.00
2019-02-22T00:05:01.432Z,30.20
2019-02-22T00:06:01.595Z,31.00
2019-02-22T00:07:01.743Z,31.50
2019-02-22T00:08:01.970Z,31.30
2019-02-22T00:09:02.132Z,31.10
2019-02-22T00:10:02.218Z,32.60
2019-02-22T00:11:02.474Z,33.90
2019-02-22T00:12:02.622Z,31.10
2019-02-22T00:13:02.752Z,31.50
2019-02-22T00:14:02.947Z,31.10
2019-02-22T00:15:03.110Z,32.10
2019-02-22T00:16:03.314Z,32.70
2019-02-22T00:17:03.497Z,31.10
2019-02-22T00:18:03.654Z,32.80
2019-02-22T00:19:03.879Z,31.40
2019-02-22T00:20:03.976Z,34.60
2019-02-22T00:21:04.127Z,30.60
2019-02-22T00:22:04.287Z,30.70
2019-02-22T00:23:04.490Z,29.70
2019-02-22T00:24:04.689Z,30.80
2019-02-22T00:25:04.857Z,32.10
2019-02-22T00:26:05.074Z,33.00
2019-02-22T00:27:05.202Z,30.90
2019-02-22T00:28:05.376Z,31.30
2019-02-22T00:29:05.539Z,30.70
2019-02-22T00:30:05.683Z,30.80
2019-02-22T00:31:05.851Z,31.70
2019-02-22T00:32:06.042Z,28.40
2019-02-22T00:33:06.198Z,31.60
2019-02-22T00:34:06.383Z,30.70
2019-02-22T00:35:06.479Z,29.00
2019-02-22T00:36:06.723Z,29.00
2019-02-22T00:37:06.899Z,31.10
2019-02-22T00:38:06.981Z,30.90
2019-02-22T00:39:07.136Z,28.60
2019-02-22T00:40:07.232Z,28.80
2019-02-22T00:41:07.410Z,29.50
2019-02-22T00:42:07.574Z,28.50
2019-02-22T00:43:07.742Z,29.30
2019-02-22T00:44:07.918Z,29.90
2019-02-22T00:45:08.074Z,29.80
2019-02-22T00:46:08.271Z,29.40
2019-02-22T00:47:08.469Z,29.40
2019-02-22T00:48:08.697Z,29.40
2019-02-22T00:49:08.717Z,27.30
2019-02-22T00:50:08.941Z,28.00
2019-02-22T00:51:09.131Z,31.30
2019-02-22T00:52:09.310Z,29.80
2019-02-22T00:53:09.461Z,28.90
2019-02-22T00:54:09.659Z,29.00
2019-02-22T00:55:09.837Z,29.60
2019-02-22T00:56:09.995Z,26.80
2019-02-22T00:57:10.191Z,28.80
2019-02-22T00:58:10.397Z,29.40
2019-02-22T00:59:10.565Z,28.50
2019-02-22T01:00:10.815Z,30.60
2019-02-22T01:01:10.909Z,30.00
2019-02-22T01:02:11.116Z,33.10
2019-02-22T01:03:11.350Z,27.90
2019-02-22T01:04:11.413Z,28.70
2019-02-22T01:05:11.572Z,29.60
2019-02-22T01:06:11.721Z,29.30
2019-02-22T01:07:11.871Z,29.20
2019-02-22T01:08:12.067Z,27.90
2019-02-22T01:09:12.222Z,27.90
2019-02-22T01:10:12.336Z,28.10
2019-02-22T01:11:12.545Z,29.30
2019-02-22T01:12:12.711Z,28.20
2019-02-22T01:13:12.867Z,29.00
2019-02-22T01:14:12.978Z,26.80
2019-02-22T01:15:13.182Z,26.00
2019-02-22T01:16:13.357Z,26.20
2019-02-22T01:17:13.509Z,25.30
2019-02-22T01:18:13.741Z,25.70
2019-02-22T01:19:13.890Z,26.90
2019-02-22T01:20:14.065Z,25.20
2019-02-22T01:21:14.245Z,25.30
2019-02-22T01:22:14.438Z,27.90
2019-02-22T01:23:14.662Z,23.70
2019-02-22T01:24:14.765Z,23.30
2019-02-22T01:25:14.930Z,23.50
2019-02-22T01:26:15.133Z,23.10
2019-02-22T01:27:15.312Z,23.00
2019-02-22T01:28:15.492Z,20.10
2019-02-22T01:29:15.672Z,21.50
2019-02-22T01:30:15.817Z,21.40
2019-02-22T01:31:15.920Z,21.50
2019-02-22T01:32:17.412Z,21.20
2019-02-22T01:33:19.874Z,20.50
2019-02-22T01:34:19.006Z,21.20
2019-02-22T01:35:19.866Z,20.80
2019-02-22T01:36:18.544Z,21.90
2019-02-22T01:37:21.266Z,19.60
2019-02-22T01:38:18.047Z,21.30
2019-02-22T01:39:18.369Z,19.60
2019-02-22T01:40:19.095Z,19.90
2019-02-22T01:41:19.401Z,18.50
2019-02-22T01:42:18.005Z,17.40
2019-02-22T01:43:17.789Z,17.90
2019-02-22T01:44:17.989Z,18.40
2019-02-22T01:45:18.294Z,17.50
2019-02-22T01:46:18.393Z,16.70
2019-02-22T01:47:18.557Z,18.30
2019-02-22T01:48:18.735Z,17.30
2019-02-22T01:49:18.901Z,18.70
2019-02-22T01:50:19.061Z,16.70
2019-02-22T01:51:19.302Z,16.50
2019-02-22T01:52:19.493Z,17.60
2019-02-22T01:53:19.592Z,16.70
2019-02-22T01:54:19.778Z,17.00
2019-02-22T01:55:19.955Z,16.00
2019-02-22T01:56:20.121Z,17.50
2019-02-22T01:57:20.239Z,16.90
2019-02-22T01:58:20.478Z,17.30
2019-02-22T01:59:20.705Z,16.70
2019-02-22T02:00:20.852Z,17.80
2019-02-22T02:01:20.958Z,18.80
2019-02-22T02:02:21.218Z,16.20
2019-02-22T02:03:21.378Z,17.10
2019-02-22T02:04:21.555Z,16.30
2019-02-22T02:05:21.717Z,16.90
2019-02-22T02:06:21.867Z,16.10
2019-02-22T02:07:22.018Z,15.80
2019-02-22T02:08:22.191Z,16.30
2019-02-22T02:09:22.362Z,17.30
2019-02-22T02:10:22.451Z,17.10
2019-02-22T02:11:22.670Z,16.20
2019-02-22T02:12:22.920Z,17.80
2019-02-22T02:13:23.071Z,16.60
2019-02-22T02:14:23.250Z,16.00
2019-02-22T02:15:23.394Z,17.50
2019-02-22T02:16:23.578Z,17.50
2019-02-22T02:17:23.697Z,17.90
2019-02-22T02:18:23.896Z,14.70
2019-02-22T02:19:24.161Z,17.40
2019-02-22T02:20:24.200Z,17.20
2019-02-22T02:21:24.345Z,16.50
2019-02-22T02:22:24.489Z,17.10
2019-02-22T02:23:24.665Z,17.80
2019-02-22T02:24:24.831Z,17.00
2019-02-22T02:25:24.981Z,18.00
2019-02-22T02:26:25.625Z,17.00
2019-02-22T02:27:25.322Z,17.30
2019-02-22T02:28:25.538Z,16.40
2019-02-22T02:29:25.704Z,16.50
2019-02-22T02:30:25.880Z,16.00
2019-02-22T02:31:26.046Z,19.40
2019-02-22T02:32:26.215Z,18.10
2019-02-22T02:33:26.373Z,18.70
2019-02-22T02:34:26.561Z,16.80
2019-02-22T02:35:26.610Z,18.80
2019-02-22T02:36:26.826Z,17.90
2019-02-22T02:37:27.005Z,17.60
2019-02-22T02:38:27.161Z,18.00
2019-02-22T02:39:27.328Z,20.00
2019-02-22T02:40:27.457Z,18.50
2019-02-22T02:41:27.665Z,17.00
2019-02-22T02:42:27.868Z,18.00
2019-02-22T02:43:28.042Z,18.60
2019-02-22T02:44:28.227Z,16.40
2019-02-22T02:45:28.383Z,16.90
2019-02-22T02:46:28.591Z,18.40
2019-02-22T02:47:28.738Z,17.50
2019-02-22T02:48:28.901Z,17.90
2019-02-22T02:49:29.054Z,18.40
2019-02-22T02:50:29.271Z,17.40
2019-02-22T02:51:29.430Z,18.50
2019-02-22T02:52:29.641Z,16.90
2019-02-22T02:53:30.142Z,17.80
2019-02-22T02:54:29.917Z,16.00
2019-02-22T02:55:30.075Z,17.70
2019-02-22T02:56:30.227Z,16.90
2019-02-22T02:57:30.403Z,17.30
2019-02-22T02:58:30.558Z,17.10
2019-02-22T02:59:30.710Z,17.20
2019-02-22T03:00:31.881Z,17.20
2019-02-22T03:01:30.999Z,16.60
2019-02-22T03:02:31.206Z,16.60
2019-02-22T03:03:31.351Z,15.90
2019-02-22T03:04:31.550Z,16.00
2019-02-22T03:05:31.764Z,16.50
2019-02-22T03:06:31.955Z,17.20
2019-02-22T03:07:32.122Z,16.80
2019-02-22T03:08:32.232Z,16.90
2019-02-22T03:09:32.402Z,15.70
2019-02-22T03:10:32.557Z,17.40
2019-02-22T03:11:32.721Z,17.60
2019-02-22T03:12:32.875Z,14.30
2019-02-22T03:13:33.110Z,14.90
2019-02-22T03:14:33.173Z,15.40
2019-02-22T03:15:33.362Z,14.40
2019-02-22T03:16:33.531Z,14.80
2019-02-22T03:17:33.698Z,15.10
2019-02-22T03:18:33.889Z,15.00
2019-02-22T03:19:34.068Z,14.60
2019-02-22T03:20:34.227Z,16.00
2019-02-22T03:21:34.363Z,14.20
2019-02-22T03:22:34.528Z,13.30
2019-02-22T03:23:34.727Z,12.80
2019-02-22T03:24:34.877Z,12.20
2019-02-22T03:25:35.042Z,11.50
2019-02-22T03:26:35.190Z,12.50
2019-02-22T03:27:35.336Z,11.60
2019-02-22T03:28:35.536Z,12.00
2019-02-22T03:29:35.700Z,9.60
2019-02-22T03:30:35.932Z,11.90
2019-02-22T03:31:36.060Z,12.20
2019-02-22T03:32:36.192Z,12.50
2019-02-22T03:33:36.365Z,12.70
2019-02-22T03:34:36.536Z,12.50
2019-02-22T03:35:36.685Z,11.70
2019-02-22T03:36:36.847Z,12.20
2019-02-22T03:37:37.115Z,11.60
2019-02-22T03:38:37.211Z,10.80
2019-02-22T03:39:37.373Z,11.10
2019-02-22T03:40:37.531Z,10.40
2019-02-22T03:41:37.698Z,11.00
2019-02-22T03:42:37.876Z,10.20
2019-02-22T03:43:38.027Z,9.50
2019-02-22T03:44:38.217Z,8.60
2019-02-22T03:45:38.414Z,10.00
2019-02-22T03:46:38.562Z,9.30
2019-02-22T03:47:38.759Z,8.70
2019-02-22T03:48:38.916Z,9.10
2019-02-22T03:49:39.110Z,10.30
2019-02-22T03:50:39.276Z,9.70
2019-02-22T03:51:39.458Z,9.40
2019-02-22T03:52:39.625Z,8.10
2019-02-22T03:53:39.783Z,7.70
2019-02-22T03:54:39.948Z,9.10
2019-02-22T03:55:40.110Z,7.20
2019-02-22T03:56:40.206Z,7.40
2019-02-22T03:57:40.381Z,7.10
2019-02-22T03:58:43.933Z,7.20
2019-02-22T03:59:42.460Z,7.00
2019-02-22T04:00:43.729Z,8.10
2019-02-22T04:01:41.440Z,7.40
2019-02-22T04:02:41.294Z,6.80
2019-02-22T04:03:41.502Z,7.50
2019-02-22T04:04:41.667Z,6.70
2019-02-22T04:05:41.824Z,8.50
2019-02-22T04:06:41.999Z,7.20
2019-02-22T04:07:42.210Z,6.50
2019-02-22T04:08:42.370Z,7.40
2019-02-22T04:09:42.545Z,6.90
2019-02-22T04:10:42.718Z,5.60
2019-02-22T04:11:45.973Z,5.80
2019-02-22T04:12:43.095Z,6.20
2019-02-22T04:13:43.213Z,6.00
2019-02-22T04:14:43.422Z,5.70
2019-02-22T04:15:43.580Z,7.30
2019-02-22T04:16:43.760Z,5.80
2019-02-22T04:17:43.931Z,5.30
2019-02-22T04:18:44.048Z,5.30
2019-02-22T04:19:44.231Z,5.40
2019-02-22T04:20:44.361Z,6.10
2019-02-22T04:21:44.543Z,4.90
2019-02-22T04:22:44.709Z,5.50
2019-02-22T04:23:44.904Z,5.90
2019-02-22T04:24:45.078Z,5.70
2019-02-22T04:25:45.262Z,5.80
2019-02-22T04:26:45.731Z,7.00
2019-02-22T04:27:46.012Z,5.10
2019-02-22T04:28:45.760Z,5.40
2019-02-22T04:29:45.945Z,5.10
2019-02-22T04:30:46.171Z,5.40
2019-02-22T04:31:49.317Z,4.80
2019-02-22T04:32:46.456Z,5.40
2019-02-22T04:33:47.248Z,5.00
2019-02-22T04:34:46.742Z,4.90
2019-02-22T04:35:46.936Z,4.90
2019-02-22T04:36:47.119Z,5.20
2019-02-22T04:37:47.232Z,5.30
2019-02-22T04:38:47.379Z,5.20
2019-02-22T04:39:47.532Z,4.90
2019-02-22T04:40:47.699Z,4.80
2019-02-22T04:41:57.694Z,4.60
2019-02-22T04:42:48.049Z,4.70
2019-02-22T04:43:48.204Z,4.80
2019-02-22T04:44:48.368Z,4.80
2019-02-22T04:45:48.553Z,4.40
2019-02-22T04:46:48.765Z,4.50
2019-02-22T04:47:48.795Z,5.00
2019-02-22T04:48:48.964Z,5.30
2019-02-22T04:49:49.150Z,4.50
2019-02-22T04:50:49.320Z,5.10
2019-02-22T04:51:49.516Z,5.30
2019-02-22T04:52:49.692Z,5.10
2019-02-22T04:53:49.793Z,4.80
2019-02-22T04:54:49.894Z,5.00
2019-02-22T04:55:50.203Z,5.00
2019-02-22T04:56:50.244Z,5.40
2019-02-22T04:57:50.488Z,4.60
2019-02-22T04:58:50.669Z,5.70
2019-02-22T04:59:50.871Z,5.30
2019-02-22T05:00:51.062Z,5.10
2019-02-22T05:01:51.237Z,4.70
2019-02-22T05:02:51.395Z,4.80
2019-02-22T05:03:51.577Z,4.90
2019-02-22T05:04:51.729Z,4.00
2019-02-22T05:05:51.917Z,4.30
2019-02-22T05:06:52.144Z,4.40
2019-02-22T05:07:52.238Z,4.80
2019-02-22T05:08:52.403Z,5.10
2019-02-22T05:09:52.580Z,4.60
2019-02-22T05:10:52.790Z,4.10
2019-02-22T05:11:52.975Z,5.50
2019-02-22T05:12:53.137Z,4.00
2019-02-22T05:13:53.291Z,4.00
2019-02-22T05:14:53.441Z,4.60
2019-02-22T05:15:53.601Z,4.80
2019-02-22T05:16:55.343Z,3.70
2019-02-22T05:17:54.779Z,4.40
2019-02-22T05:18:54.113Z,4.00
2019-02-22T05:19:54.287Z,4.90
2019-02-22T05:20:54.471Z,5.10
2019-02-22T05:21:54.566Z,4.00
2019-02-22T05:23:03.385Z,3.80
2019-02-22T05:23:54.912Z,4.70
2019-02-22T05:24:55.065Z,4.10
2019-02-22T05:25:55.268Z,4.20
2019-02-22T05:26:55.435Z,3.60
2019-02-22T05:27:55.708Z,4.20
2019-02-22T05:28:55.744Z,4.40
2019-02-22T05:29:55.871Z,4.00
2019-02-22T05:30:56.025Z,4.60
2019-02-22T05:31:56.196Z,4.20
2019-02-22T05:32:56.356Z,3.80
2019-02-22T05:33:56.521Z,4.30
2019-02-22T05:34:57.687Z,4.70
2019-02-22T05:35:56.861Z,4.40
2019-02-22T05:36:57.128Z,4.20
2019-02-22T05:37:57.311Z,4.40
2019-02-22T05:38:57.536Z,4.10
2019-02-22T05:39:57.763Z,5.40
2019-02-22T05:40:57.799Z,5.60
2019-02-22T05:41:58.268Z,4.90
2019-02-22T05:42:58.162Z,4.90
2019-02-22T05:43:58.192Z,5.00
2019-02-22T05:44:58.358Z,5.80
2019-02-22T05:45:58.612Z,5.20
2019-02-22T05:47:00.573Z,5.50
2019-02-22T05:47:58.967Z,6.40
2019-02-22T05:48:59.193Z,5.40
2019-02-22T05:49:59.253Z,5.00
2019-02-22T05:50:59.425Z,6.20
2019-02-22T05:51:59.604Z,6.30
2019-02-22T05:52:59.779Z,6.30
2019-02-22T05:53:59.959Z,6.40
2019-02-22T05:55:00.326Z,6.20
2019-02-22T05:56:00.329Z,4.90
2019-02-22T05:57:00.495Z,5.60
2019-02-22T05:58:00.675Z,6.00
2019-02-22T05:59:00.858Z,5.40
2019-02-22T06:00:01.060Z,5.70
2019-02-22T06:01:01.143Z,6.20
2019-02-22T06:02:01.332Z,6.80
2019-02-22T06:03:01.530Z,6.30
2019-02-22T06:04:01.653Z,5.70
2019-02-22T06:05:01.884Z,5.70
2019-02-22T06:06:02.121Z,5.90
2019-02-22T06:07:02.146Z,5.60
2019-02-22T06:08:02.374Z,7.30
2019-02-22T06:09:02.521Z,6.20
2019-02-22T06:10:02.721Z,6.20
2019-02-22T06:11:02.925Z,6.20
2019-02-22T06:12:03.108Z,6.40
2019-02-22T06:13:03.387Z,6.40
2019-02-22T06:14:03.420Z,6.40
2019-02-22T06:15:03.605Z,5.80
2019-02-22T06:16:03.879Z,6.60
2019-02-22T06:17:14.272Z,7.80
2019-02-22T06:18:04.006Z,7.10
2019-02-22T06:19:04.201Z,6.20
2019-02-22T06:20:04.268Z,6.00
2019-02-22T06:21:04.510Z,6.60
2019-02-22T06:22:04.638Z,6.30
2019-02-22T06:23:04.823Z,6.80
2019-02-22T06:24:05.002Z,7.10
2019-02-22T06:25:05.257Z,6.20
2019-02-22T06:26:05.315Z,6.50
2019-02-22T06:27:05.604Z,6.50
2019-02-22T06:28:05.651Z,6.20
2019-02-22T06:29:05.802Z,7.70
2019-02-22T06:30:06.013Z,6.60
2019-02-22T06:31:06.205Z,6.70
2019-02-22T06:32:06.549Z,6.40
2019-02-22T06:33:06.504Z,7.10
2019-02-22T06:34:06.645Z,7.00
2019-02-22T06:35:08.835Z,7.00
2019-02-22T06:36:08.207Z,7.10
2019-02-22T06:37:07.133Z,7.20
2019-02-22T06:38:07.325Z,7.30
2019-02-22T06:39:07.474Z,6.60
2019-02-22T06:40:07.666Z,6.50
2019-02-22T06:41:07.825Z,7.40
2019-02-22T06:42:08.030Z,7.10
2019-02-22T06:43:08.091Z,6.80
2019-02-22T06:44:08.243Z,7.20
2019-02-22T06:45:08.420Z,6.20
2019-02-22T06:46:08.599Z,6.60
2019-02-22T06:47:11.120Z,7.00
2019-02-22T06:48:11.706Z,6.30
2019-02-22T06:49:11.057Z,7.00
2019-02-22T06:50:11.564Z,6.10
2019-02-22T06:51:13.100Z,6.30
2019-02-22T06:52:12.333Z,7.50
2019-02-22T06:53:10.908Z,7.30
2019-02-22T06:54:09.904Z,6.50
2019-02-22T06:55:10.090Z,7.00
2019-02-22T06:56:10.257Z,7.80
2019-02-22T06:57:10.401Z,7.30
2019-02-22T06:58:11.819Z,6.00
2019-02-22T06:59:10.705Z,7.50
2019-02-22T07:00:11.093Z,7.10
2019-02-22T07:01:11.085Z,7.30
2019-02-22T07:02:11.260Z,8.70
2019-02-22T07:03:11.425Z,8.20
2019-02-22T07:04:11.593Z,7.30
2019-02-22T07:05:11.781Z,8.10
2019-02-22T07:06:11.929Z,6.60
2019-02-22T07:07:12.103Z,8.40
2019-02-22T07:08:12.250Z,7.40
2019-02-22T07:09:12.517Z,6.90
2019-02-22T07:10:12.676Z,8.40
2019-02-22T07:11:12.829Z,6.30
2019-02-22T07:12:13.015Z,7.40
2019-02-22T07:13:13.811Z,8.10
2019-02-22T07:14:13.296Z,7.10
2019-02-22T07:15:13.462Z,7.10
2019-02-22T07:16:13.642Z,8.50
2019-02-22T07:17:13.799Z,9.50
2019-02-22T07:18:13.967Z,9.10
2019-02-22T07:19:14.131Z,8.70
2019-02-22T07:20:14.290Z,9.30
2019-02-22T07:21:14.428Z,9.00
2019-02-22T07:22:14.564Z,9.80
2019-02-22T07:23:14.770Z,9.10
2019-02-22T07:24:14.920Z,9.90
2019-02-22T07:25:15.065Z,8.70
2019-02-22T07:26:15.150Z,8.30
2019-02-22T07:27:15.376Z,9.30
2019-02-22T07:28:15.548Z,9.00
2019-02-22T07:29:15.714Z,8.50
2019-02-22T07:30:15.883Z,7.80
2019-02-22T07:31:16.097Z,8.80
2019-02-22T07:32:16.249Z,9.00
2019-02-22T07:33:16.427Z,8.10
2019-02-22T07:34:16.606Z,8.80
2019-02-22T07:35:16.813Z,8.90
2019-02-22T07:36:17.007Z,9.00
2019-02-22T07:37:17.095Z,8.80
2019-02-22T07:38:17.258Z,8.20
2019-02-22T07:39:27.370Z,8.60
2019-02-22T07:40:19.875Z,9.00
2019-02-22T07:41:17.738Z,9.70
2019-02-22T07:42:17.874Z,10.10
2019-02-22T07:43:18.069Z,8.70
2019-02-22T07:44:18.222Z,9.30
2019-02-22T07:45:19.288Z,9.00
2019-02-22T07:46:18.943Z,9.00
2019-02-22T07:47:18.620Z,10.40
2019-02-22T07:48:18.795Z,8.90
2019-02-22T07:49:18.977Z,10.00
2019-02-22T07:50:19.131Z,9.80
2019-02-22T07:51:19.273Z,10.40
2019-02-22T07:52:19.423Z,9.00
2019-02-22T07:53:19.589Z,10.40
2019-02-22T07:54:19.759Z,9.60
2019-02-22T07:55:19.950Z,10.20
2019-02-22T07:56:20.113Z,9.30
2019-02-22T07:57:20.286Z,10.70
2019-02-22T07:58:24.334Z,9.40
2019-02-22T07:59:20.591Z,9.70
2019-02-22T08:00:20.773Z,9.80
2019-02-22T08:01:20.950Z,8.60
2019-02-22T08:02:21.171Z,10.20
2019-02-22T08:03:21.257Z,9.60
2019-02-22T08:04:21.405Z,10.40
2019-02-22T08:05:21.547Z,10.70
2019-02-22T08:06:21.701Z,10.20
2019-02-22T08:07:22.012Z,10.60
2019-02-22T08:08:22.066Z,11.90
2019-02-22T08:09:22.220Z,11.00
2019-02-22T08:10:22.347Z,9.30
2019-02-22T08:11:22.399Z,9.30
2019-02-22T08:12:22.629Z,10.40
2019-02-22T08:13:22.772Z,10.00
2019-02-22T08:14:22.924Z,10.00
2019-02-22T08:15:22.990Z,9.60
2019-02-22T08:16:23.276Z,10.10
2019-02-22T08:17:23.537Z,11.30
2019-02-22T08:18:24.187Z,9.00
2019-02-22T08:19:24.654Z,9.40
2019-02-22T08:20:25.199Z,9.50
2019-02-22T08:21:25.365Z,9.50
2019-02-22T08:22:24.567Z,11.20
2019-02-22T08:23:25.172Z,10.60
2019-02-22T08:24:25.926Z,10.60
2019-02-22T08:25:27.690Z,10.20
2019-02-22T08:26:25.256Z,10.10
2019-02-22T08:27:24.956Z,10.40
2019-02-22T08:28:24.989Z,9.30
2019-02-22T08:29:25.167Z,10.20
2019-02-22T08:30:25.504Z,11.00
2019-02-22T08:31:26.867Z,10.70
2019-02-22T08:32:25.604Z,9.80
2019-02-22T08:33:27.865Z,10.80
2019-02-22T08:34:26.631Z,11.40
2019-02-22T08:35:27.256Z,10.70
2019-02-22T08:36:28.240Z,11.10
2019-02-22T08:37:26.848Z,10.80
2019-02-22T08:38:26.880Z,10.80
2019-02-22T08:39:26.837Z,11.40
2019-02-22T08:40:27.079Z,10.50
2019-02-22T08:41:27.112Z,10.40
2019-02-22T08:42:27.344Z,10.20
2019-02-22T08:43:31.513Z,10.40
2019-02-22T08:44:27.786Z,10.40
2019-02-22T08:45:27.902Z,9.70
2019-02-22T08:46:28.244Z,11.10
2019-02-22T08:47:28.506Z,10.80
2019-02-22T08:48:28.869Z,10.60
2019-02-22T08:49:29.293Z,10.40
2019-02-22T08:50:28.672Z,12.10
2019-02-22T08:51:29.912Z,11.90
2019-02-22T08:52:29.123Z,12.50
2019-02-22T08:53:29.553Z,11.40
2019-02-22T08:54:29.430Z,11.30
2019-02-22T08:55:29.363Z,11.30
2019-02-22T08:56:29.923Z,11.70
2019-02-22T08:57:29.954Z,10.20
2019-02-22T08:58:30.137Z,10.20
2019-02-22T08:59:30.190Z,10.20
2019-02-22T09:00:30.577Z,10.30
2019-02-22T09:01:30.239Z,10.50
2019-02-22T09:02:30.408Z,10.80
2019-02-22T09:03:31.150Z,9.80
2019-02-22T09:04:30.766Z,12.30
2019-02-22T09:05:30.916Z,10.60
2019-02-22T09:06:31.095Z,10.60
2019-02-22T09:07:31.273Z,9.90
2019-02-22T09:08:31.442Z,11.50
2019-02-22T09:09:31.626Z,11.40
2019-02-22T09:10:32.682Z,10.00
2019-02-22T09:11:31.950Z,10.80
2019-02-22T09:12:32.202Z,10.40
2019-02-22T09:13:42.859Z,10.90
2019-02-22T09:14:35.827Z,10.20
2019-02-22T09:15:34.293Z,11.30
2019-02-22T09:16:33.467Z,13.60
2019-02-22T09:17:33.531Z,11.30
2019-02-22T09:18:34.816Z,11.20
2019-02-22T09:19:33.336Z,10.90
2019-02-22T09:20:34.200Z,10.10
2019-02-22T09:21:35.106Z,11.10
2019-02-22T09:22:35.484Z,10.90
2019-02-22T09:23:34.048Z,10.00
2019-02-22T09:24:34.671Z,11.20
2019-02-22T09:25:34.784Z,10.00
2019-02-22T09:26:34.513Z,10.20
2019-02-22T09:27:34.678Z,11.50
2019-02-22T09:28:34.776Z,10.10
2019-02-22T09:29:34.931Z,11.30
2019-02-22T09:30:35.199Z,7.90
2019-02-22T09:31:35.232Z,9.90
2019-02-22T09:32:35.404Z,8.30
2019-02-22T09:33:35.529Z,10.70
2019-02-22T09:34:35.655Z,9.10
2019-02-22T09:35:35.960Z,9.90
2019-02-22T09:36:37.619Z,9.30
2019-02-22T09:37:37.291Z,9.00
2019-02-22T09:38:37.962Z,10.90
2019-02-22T09:39:38.845Z,10.30
2019-02-22T09:40:36.664Z,10.60
2019-02-22T09:41:36.789Z,10.20
2019-02-22T09:42:36.933Z,9.70
2019-02-22T09:43:37.218Z,9.70
2019-02-22T09:44:38.599Z,9.30
2019-02-22T09:45:37.323Z,10.20
2019-02-22T09:46:37.659Z,9.60
2019-02-22T09:47:37.673Z,8.90
2019-02-22T09:48:37.871Z,9.50
2019-02-22T09:49:38.033Z,9.20
2019-02-22T09:50:38.240Z,10.10
2019-02-22T09:51:41.052Z,9.20
2019-02-22T09:52:38.564Z,10.40
2019-02-22T09:53:38.741Z,8.30
2019-02-22T09:54:38.941Z,9.10
2019-02-22T09:55:39.025Z,9.40
2019-02-22T09:56:39.149Z,9.70
2019-02-22T09:57:39.333Z,8.80
2019-02-22T09:58:39.494Z,9.60
2019-02-22T09:59:39.666Z,8.60
2019-02-22T10:00:39.856Z,10.60
2019-02-22T10:01:40.061Z,10.40
2019-02-22T10:02:40.267Z,12.10
2019-02-22T10:03:40.489Z,10.40
2019-02-22T10:04:40.650Z,11.90
2019-02-22T10:05:40.859Z,10.00
2019-02-22T10:06:41.144Z,10.40
2019-02-22T10:07:41.319Z,9.30
2019-02-22T10:08:41.345Z,10.10
2019-02-22T10:09:41.519Z,9.20
2019-02-22T10:10:41.741Z,9.40
2019-02-22T10:11:41.920Z,9.50
2019-02-22T10:12:42.107Z,10.00
2019-02-22T10:13:42.280Z,8.60
2019-02-22T10:14:42.371Z,9.60
2019-02-22T10:15:42.691Z,10.90
2019-02-22T10:16:42.751Z,11.40
2019-02-22T10:17:42.839Z,10.90
2019-02-22T10:18:43.029Z,9.40
2019-02-22T10:19:43.179Z,9.00
2019-02-22T10:20:43.389Z,8.80
2019-02-22T10:21:43.554Z,8.80
2019-02-22T10:22:43.774Z,8.10
2019-02-22T10:23:43.925Z,8.20
2019-02-22T10:24:44.094Z,8.00
2019-02-22T10:25:44.233Z,9.80
2019-02-22T10:26:44.411Z,8.00
2019-02-22T10:27:44.558Z,8.20
2019-02-22T10:28:44.727Z,8.20
2019-02-22T10:29:44.906Z,7.20
2019-02-22T10:30:45.091Z,8.20
2019-02-22T10:31:45.321Z,8.50
2019-02-22T10:32:45.465Z,7.30
2019-02-22T10:33:45.677Z,7.80
2019-02-22T10:34:46.159Z,8.20
2019-02-22T10:35:46.072Z,8.00
2019-02-22T10:36:46.238Z,8.10
2019-02-22T10:37:46.436Z,8.30
2019-02-22T10:38:46.776Z,7.80
2019-02-22T10:39:46.771Z,7.30
2019-02-22T10:40:46.997Z,9.00
2019-02-22T10:41:47.061Z,7.90
2019-02-22T10:42:48.070Z,7.70
2019-02-22T10:43:47.432Z,9.20
2019-02-22T10:44:47.825Z,7.70
2019-02-22T10:45:48.156Z,6.50
2019-02-22T10:46:48.039Z,7.60
2019-02-22T10:47:48.158Z,8.50
2019-02-22T10:48:48.390Z,8.10
2019-02-22T10:49:48.386Z,7.50
2019-02-22T10:50:48.943Z,7.80
2019-02-22T10:51:50.711Z,6.30
2019-02-22T10:52:48.988Z,7.70
2019-02-22T10:53:50.251Z,6.60
2019-02-22T10:54:49.620Z,6.80
2019-02-22T10:55:49.461Z,6.90
2019-02-22T10:56:49.572Z,6.20
2019-02-22T10:57:49.818Z,5.40
2019-02-22T10:58:49.854Z,6.00
2019-02-22T10:59:50.073Z,7.50
2019-02-22T11:00:50.280Z,6.10
2019-02-22T11:01:51.196Z,7.70
2019-02-22T11:02:50.807Z,6.40
2019-02-22T11:03:50.646Z,6.50
2019-02-22T11:04:50.852Z,6.20
2019-02-22T11:05:51.084Z,6.80
2019-02-22T11:06:51.247Z,7.80
2019-02-22T11:07:51.356Z,8.20
2019-02-22T11:08:51.489Z,8.40
2019-02-22T11:09:51.565Z,8.30
2019-02-22T11:10:51.711Z,7.80
2019-02-22T11:11:52.023Z,7.10
2019-02-22T11:12:52.160Z,7.30
2019-02-22T11:13:52.266Z,8.30
2019-02-22T11:14:52.637Z,7.20
2019-02-22T11:15:54.423Z,8.60
2019-02-22T11:16:52.723Z,8.50
2019-02-22T11:17:52.866Z,8.40
2019-02-22T11:18:53.155Z,8.30
2019-02-22T11:19:53.271Z,8.00
2019-02-22T11:20:53.440Z,8.90
2019-02-22T11:21:53.638Z,6.90
2019-02-22T11:22:53.843Z,7.80
2019-02-22T11:23:53.992Z,8.80
2019-02-22T11:24:54.216Z,7.50
2019-02-22T11:25:54.500Z,7.40
2019-02-22T11:26:54.552Z,8.70
2019-02-22T11:27:54.890Z,8.00
2019-02-22T11:28:54.900Z,7.70
2019-02-22T11:29:55.032Z,8.00
2019-02-22T11:30:55.340Z,7.00
2019-02-22T11:31:55.520Z,8.00
2019-02-22T11:32:55.667Z,8.60
2019-02-22T11:33:55.783Z,7.50
2019-02-22T11:34:56.071Z,7.10
2019-02-22T11:35:56.227Z,7.90
2019-02-22T11:36:56.371Z,7.10
2019-02-22T11:37:56.522Z,7.30
2019-02-22T11:38:56.688Z,11.40
2019-02-22T11:39:56.840Z,6.90
2019-02-22T11:40:57.038Z,7.00
2019-02-22T11:41:57.225Z,7.30
2019-02-22T11:42:57.404Z,6.60
2019-02-22T11:43:57.537Z,6.10
2019-02-22T11:44:57.663Z,7.90
2019-02-22T11:45:57.803Z,6.60
2019-02-22T11:46:58.039Z,6.60
2019-02-22T11:48:08.399Z,6.00
2019-02-22T11:48:58.402Z,6.30
2019-02-22T11:49:58.627Z,6.60
2019-02-22T11:50:58.720Z,6.40
2019-02-22T11:51:59.082Z,6.40
2019-02-22T11:52:58.995Z,7.00
2019-02-22T11:53:59.356Z,8.10
2019-02-22T11:54:59.425Z,6.40
2019-02-22T11:55:59.518Z,7.20
2019-02-22T11:56:59.683Z,6.90
2019-02-22T11:57:59.848Z,7.10
2019-02-22T11:59:00.040Z,5.80
2019-02-22T12:00:00.340Z,5.80
2019-02-22T12:01:00.385Z,6.30
2019-02-22T12:02:00.540Z,6.80
2019-02-22T12:03:12.252Z,6.10
2019-02-22T12:04:00.919Z,6.70
2019-02-22T12:05:01.348Z,5.90
2019-02-22T12:06:02.713Z,4.90
2019-02-22T12:07:01.335Z,5.30
2019-02-22T12:08:03.530Z,5.00
2019-02-22T12:09:01.563Z,5.50
2019-02-22T12:10:03.339Z,7.90
2019-02-22T12:11:01.845Z,6.20
2019-02-22T12:12:01.982Z,5.80
2019-02-22T12:13:02.570Z,5.70
2019-02-22T12:14:02.206Z,5.50
2019-02-22T12:15:02.784Z,5.20
2019-02-22T12:16:02.513Z,5.90
2019-02-22T12:17:03.822Z,5.00
2019-02-22T12:18:02.937Z,4.70
2019-02-22T12:19:02.926Z,5.00
2019-02-22T12:20:03.190Z,5.20
2019-02-22T12:21:03.367Z,5.90
2019-02-22T12:22:03.562Z,6.30
2019-02-22T12:23:03.726Z,6.70
2019-02-22T12:24:03.825Z,5.70
2019-02-22T12:25:05.320Z,7.60
2019-02-22T12:26:04.127Z,7.30
2019-02-22T12:27:04.437Z,7.30
2019-02-22T12:28:04.526Z,7.50
2019-02-22T12:29:04.713Z,7.50
2019-02-22T12:30:04.837Z,7.10
2019-02-22T12:31:05.024Z,7.00
2019-02-22T12:32:05.282Z,6.00
2019-02-22T12:33:05.372Z,5.90
2019-02-22T12:34:05.587Z,5.70
2019-02-22T12:35:05.829Z,8.30
2019-02-22T12:36:06.573Z,6.10
2019-02-22T12:37:06.094Z,7.10
2019-02-22T12:38:06.112Z,6.00
2019-02-22T12:39:06.490Z,5.30
2019-02-22T12:40:06.488Z,6.20
2019-02-22T12:41:06.570Z,5.40
2019-02-22T12:42:06.825Z,5.70
2019-02-22T12:43:07.488Z,7.20
2019-02-22T12:44:07.129Z,5.00
2019-02-22T12:45:07.299Z,6.00
2019-02-22T12:46:07.516Z,5.70
2019-02-22T12:47:07.725Z,5.20
2019-02-22T12:48:07.939Z,5.90
2019-02-22T12:49:08.095Z,4.70
2019-02-22T12:50:10.734Z,5.70
2019-02-22T12:51:09.136Z,4.50
2019-02-22T12:52:09.020Z,5.40
2019-02-22T12:53:10.264Z,6.20
2019-02-22T12:54:09.456Z,5.20
2019-02-22T12:55:19.922Z,4.80
2019-02-22T12:56:10.285Z,5.70
2019-02-22T12:57:09.447Z,6.80
2019-02-22T12:58:10.603Z,5.20
2019-02-22T12:59:10.509Z,5.50
2019-02-22T13:00:10.776Z,7.80
2019-02-22T13:01:11.777Z,5.90
2019-02-22T13:02:12.840Z,5.00
2019-02-22T13:03:10.416Z,5.80
2019-02-22T13:04:10.960Z,5.10
2019-02-22T13:05:10.725Z,6.90
2019-02-22T13:06:10.901Z,6.10
2019-02-22T13:07:11.077Z,5.00
2019-02-22T13:08:12.560Z,5.70
2019-02-22T13:09:12.056Z,6.10